createdAt,value
2024-03-07T00:01:49.429Z,58.4
2024-03-07T00:07:24.649Z,58.9
2024-03-07T00:13:00.923Z,59.2
2024-03-07T00:18:36.710Z,59.5
2024-03-07T00:24:12.817Z,60.3
2024-03-07T00:29:48.699Z,61.1
2024-03-07T00:35:24.995Z,60.6
2024-03-07T00:41:01.581Z,60.4
2024-03-07T00:46:37.627Z,61
2024-03-07T00:52:13.125Z,59.7
2024-03-07T00:57:48.158Z,59.7
2024-03-07T01:03:23.826Z,60.2
2024-03-07T01:08:59.643Z,59.8
2024-03-07T01:14:35.261Z,60
2024-03-07T01:20:11.687Z,59.1
2024-03-07T01:25:51.980Z,60.8
2024-03-07T01:31:26.845Z,60.4
2024-03-07T01:37:05.600Z,60.4
2024-03-07T01:42:45.343Z,61
2024-03-07T01:48:20.677Z,61.9
2024-03-07T01:53:56.486Z,61.3
2024-03-07T01:59:32.576Z,62.1
2024-03-07T02:05:08.352Z,61.4
2024-03-07T02:10:43.963Z,61.9
2024-03-07T02:16:20.451Z,61.1
2024-03-07T02:21:56.317Z,61.5
2024-03-07T02:27:33.134Z,62.4
2024-03-07T02:33:09.251Z,62.8
2024-03-07T02:38:46.591Z,61.7
2024-03-07T02:44:22.980Z,63.4
2024-03-07T02:49:59.768Z,62.7
2024-03-07T02:55:34.964Z,62.7
2024-03-07T03:01:11.405Z,62.9
2024-03-07T03:06:47.630Z,62.5
2024-03-07T03:12:22.852Z,63
2024-03-07T03:17:58.667Z,62.7
2024-03-07T03:23:36.390Z,62.4
2024-03-07T03:29:12.763Z,62.6
2024-03-07T03:34:49.131Z,62.7
2024-03-07T03:40:25.394Z,62.6
2024-03-07T03:46:01.645Z,62.5
2024-03-07T03:51:37.285Z,61.7
2024-03-07T03:57:12.969Z,62.6
2024-03-07T04:02:48.491Z,62.2
2024-03-07T04:08:27.566Z,62.9
2024-03-07T04:14:04.145Z,58.4
2024-03-07T04:19:39.453Z,60.3
2024-03-07T04:25:14.991Z,61.3
2024-03-07T04:30:51.412Z,62.4
2024-03-07T04:36:27.807Z,62.7
2024-03-07T04:42:03.087Z,62.1
2024-03-07T04:47:39.801Z,62.4
2024-03-07T04:53:16.208Z,62.1
2024-03-07T04:58:52.594Z,62
2024-03-07T05:04:29.041Z,61.3
2024-03-07T05:10:04.201Z,62
2024-03-07T05:15:41.660Z,61.5
2024-03-07T05:21:18.713Z,61.7
2024-03-07T05:26:54.538Z,56.7
2024-03-07T05:32:31.923Z,55.2
2024-03-07T05:38:11.893Z,59.9
2024-03-07T05:43:47.786Z,58.3
2024-03-07T05:49:23.190Z,55.9
2024-03-07T05:54:59.331Z,58.5
2024-03-07T06:00:35.822Z,59.3
2024-03-07T06:06:11.942Z,57.7
2024-03-07T06:11:47.805Z,58.3
2024-03-07T06:17:24.248Z,58.6
2024-03-07T06:23:01.331Z,63.4
2024-03-07T06:28:37.293Z,65.3
2024-03-07T06:34:13.111Z,62.2
2024-03-07T06:39:48.951Z,63.1
2024-03-07T06:45:25.705Z,62.3
2024-03-07T06:51:00.955Z,62.6
2024-03-07T06:56:37.358Z,62.5
2024-03-07T07:02:14.006Z,63.8
2024-03-07T07:07:49.509Z,63
2024-03-07T07:13:24.634Z,60.8
2024-03-07T07:19:00.226Z,67.5
2024-03-07T07:24:35.941Z,58.6
2024-03-07T07:30:12.399Z,65.9
2024-03-07T07:35:48.144Z,61.6
2024-03-07T07:41:23.634Z,61.9
2024-03-07T07:47:00.144Z,51.6
2024-03-07T07:52:36.347Z,55.5
2024-03-07T07:58:12.480Z,66
2024-03-07T08:03:48.453Z,67
2024-03-07T08:09:24.660Z,49.5
2024-03-07T08:15:00.426Z,64.3
2024-03-07T08:20:37.249Z,47.5
2024-03-07T08:26:14.334Z,64.8
2024-03-07T08:31:50.385Z,61.1
2024-03-07T08:37:27.220Z,54.4
2024-03-07T08:43:03.244Z,61.2
2024-03-07T08:48:40.273Z,62.3
2024-03-07T08:54:17.325Z,45.5
2024-03-07T08:59:54.398Z,56.9
2024-03-07T09:05:31.980Z,54.6
2024-03-07T09:11:08.418Z,52.8
2024-03-07T09:16:44.888Z,50
2024-03-07T09:22:20.263Z,46.7
2024-03-07T09:27:56.705Z,44.7
2024-03-07T09:33:33.796Z,43.7
2024-03-07T09:39:11.128Z,46.6
2024-03-07T09:44:47.287Z,47.5
2024-03-07T09:50:25.219Z,44.6
2024-03-07T09:56:01.701Z,45.1
2024-03-07T10:01:37.368Z,43.6
2024-03-07T10:07:12.921Z,44.7
2024-03-07T10:12:49.146Z,43
2024-03-07T10:18:24.842Z,39.3
2024-03-07T10:24:01.777Z,42.2
2024-03-07T10:29:38.189Z,40.4
2024-03-07T10:35:14.059Z,43.6
2024-03-07T10:40:50.721Z,36.5
2024-03-07T10:46:26.137Z,39
2024-03-07T10:52:01.715Z,37.3
2024-03-07T10:57:38.224Z,35.6
2024-03-07T11:03:16.134Z,39
2024-03-07T11:08:51.798Z,36.8
2024-03-07T11:14:29.192Z,40.5
2024-03-07T11:20:04.966Z,40.9
2024-03-07T11:25:41.369Z,42.3
2024-03-07T11:31:17.585Z,43.5
2024-03-07T11:36:53.463Z,41
2024-03-07T11:42:30.527Z,41.6
2024-03-07T11:48:07.251Z,41.1
2024-03-07T11:53:44.684Z,37.1
2024-03-07T11:59:21.061Z,34.7
2024-03-07T12:04:57.378Z,36.1
2024-03-07T12:10:33.361Z,40.2
2024-03-07T12:16:09.475Z,36.9
2024-03-07T12:21:46.718Z,39.8
2024-03-07T12:27:22.057Z,39.4
2024-03-07T12:32:58.631Z,42.2
2024-03-07T12:38:36.035Z,39.4
2024-03-07T12:44:14.459Z,40.9
2024-03-07T12:49:50.129Z,40.4
2024-03-07T12:55:26.514Z,40.9
2024-03-07T13:01:02.328Z,42.2
2024-03-07T13:06:38.745Z,41.9
2024-03-07T13:12:15.351Z,38.7
2024-03-07T13:17:52.333Z,38
2024-03-07T13:23:29.593Z,38.9
2024-03-07T13:29:05.788Z,37.6
2024-03-07T13:34:41.665Z,36.1
2024-03-07T13:40:17.179Z,37.2
2024-03-07T13:45:53.530Z,35.7
2024-03-07T13:51:29.360Z,39.8
2024-03-07T13:57:05.924Z,35.1
2024-03-07T14:02:43.113Z,31.1
2024-03-07T14:08:19.192Z,32.6
2024-03-07T14:13:55.210Z,33
2024-03-07T14:19:30.923Z,32
2024-03-07T14:25:06.754Z,29.7
2024-03-07T14:30:43.773Z,27.1
2024-03-07T14:36:19.996Z,30.9
2024-03-07T14:41:56.188Z,33.1
2024-03-07T14:47:32.045Z,33.3
2024-03-07T14:53:09.283Z,37.4
2024-03-07T14:58:45.289Z,36.2
2024-03-07T15:04:20.970Z,36.3
2024-03-07T15:09:57.016Z,38.8
2024-03-07T15:15:32.900Z,41.6
2024-03-07T15:21:09.142Z,42.7
2024-03-07T15:26:48.804Z,41.1
2024-03-07T15:32:25.408Z,42.6
2024-03-07T15:38:02.383Z,44
2024-03-07T15:43:38.752Z,43.5
2024-03-07T15:49:14.533Z,43.6
2024-03-07T15:54:50.154Z,44.9
2024-03-07T16:00:26.290Z,44.9
2024-03-07T16:06:01.999Z,45.7
2024-03-07T16:11:39.356Z,46.9
2024-03-07T16:17:16.576Z,45.8
2024-03-07T16:22:52.444Z,45.7
2024-03-07T16:28:28.375Z,48.6
2024-03-07T16:34:04.926Z,50.6
2024-03-07T16:39:40.883Z,48.9
2024-03-07T16:45:17.358Z,51.4
2024-03-07T16:50:54.148Z,50.1
2024-03-07T16:56:30.766Z,50.5
2024-03-07T17:02:07.714Z,51.4
2024-03-07T17:07:44.773Z,52.3
2024-03-07T17:13:23.742Z,54.5
2024-03-07T17:18:59.583Z,53.2
2024-03-07T17:24:37.477Z,54.4
2024-03-07T17:30:17.013Z,57
2024-03-07T17:35:53.824Z,58.1
2024-03-07T17:41:31.678Z,59.8
2024-03-07T17:47:07.076Z,59
2024-03-07T17:52:43.928Z,60.1
2024-03-07T17:58:19.998Z,60.6
2024-03-07T18:03:55.694Z,60.3
2024-03-07T18:09:31.691Z,62.3
2024-03-07T18:15:21.386Z,61.8
2024-03-07T18:20:58.782Z,62.8
2024-03-07T18:26:34.770Z,62.9
2024-03-07T18:32:11.222Z,61.4
2024-03-07T18:37:46.670Z,60.2
2024-03-07T18:43:22.187Z,59.7
2024-03-07T18:48:58.370Z,59.3
2024-03-07T18:54:34.366Z,59.8
2024-03-07T19:00:10.462Z,59.3
2024-03-07T19:05:48.340Z,59.7
2024-03-07T19:11:25.874Z,59.7
2024-03-07T19:17:02.691Z,60.2
2024-03-07T19:22:38.713Z,59.9
2024-03-07T19:28:13.540Z,59.7
2024-03-07T19:33:51.447Z,59.9
2024-03-07T19:39:29.230Z,60
2024-03-07T19:45:05.529Z,60.5
2024-03-07T19:50:42.265Z,60.5
2024-03-07T19:56:20.081Z,60.7
2024-03-07T20:01:55.701Z,61.8
2024-03-07T20:07:31.819Z,61.8
2024-03-07T20:13:07.753Z,60.9
2024-03-07T20:18:44.018Z,60.8
2024-03-07T20:24:21.152Z,61.8
2024-03-07T20:29:57.248Z,62.4
2024-03-07T20:35:33.491Z,62.6
2024-03-07T20:41:09.592Z,62.4
2024-03-07T20:46:45.404Z,61.8
2024-03-07T20:52:20.656Z,62.6
2024-03-07T20:57:57.689Z,62.2
2024-03-07T21:03:35.289Z,62.2
2024-03-07T21:09:11.684Z,62.7
2024-03-07T21:14:47.616Z,62.3
2024-03-07T21:20:24.816Z,60
2024-03-07T21:26:01.237Z,60.4
2024-03-07T21:31:36.764Z,61.5
2024-03-07T21:37:12.373Z,61.7
2024-03-07T21:42:48.332Z,61.4
2024-03-07T21:48:25.399Z,59
2024-03-07T21:54:02.732Z,53.8
2024-03-07T21:59:39.862Z,60.8
2024-03-07T22:05:17.209Z,61.3
2024-03-07T22:10:55.041Z,61.7
2024-03-07T22:16:32.492Z,61.1
2024-03-07T22:22:10.747Z,59.3
2024-03-07T22:27:47.005Z,58.5
2024-03-07T22:33:24.458Z,58.1
2024-03-07T22:39:01.509Z,59.2
2024-03-07T22:44:39.264Z,59.4
2024-03-07T22:50:29.852Z,58.7
2024-03-07T22:56:09.350Z,59.6
2024-03-07T23:01:51.298Z,61.2
2024-03-07T23:07:27.608Z,61.9
2024-03-07T23:13:03.994Z,60.5
2024-03-07T23:18:42.888Z,60.5
2024-03-07T23:24:20.897Z,59.6
2024-03-07T23:29:58.135Z,60.1
2024-03-07T23:35:36.986Z,60.1
2024-03-07T23:41:14.453Z,59.7
2024-03-07T23:46:51.188Z,58.6
2024-03-07T23:52:27.415Z,57
2024-03-07T23:58:04.042Z,56.7
